createdAt,value
2023-05-03T00:03:14.701Z,10.20
2023-05-03T00:08:17.455Z,13.00
2023-05-03T00:13:20.274Z,15.90
2023-05-03T00:18:24.086Z,11.60
2023-05-03T00:23:28.453Z,17.30
2023-05-03T00:28:31.638Z,13.40
2023-05-03T00:33:34.469Z,16.30
2023-05-03T00:38:38.300Z,15.10
2023-05-03T00:43:41.105Z,16.30
2023-05-03T00:48:50.623Z,13.50
2023-05-03T00:53:53.610Z,12.00
2023-05-03T00:58:57.137Z,10.20
2023-05-03T01:04:04.439Z,9.40
2023-05-03T01:09:36.405Z,9.80
2023-05-03T01:15:22.640Z,7.80
2023-05-03T01:20:31.100Z,10.30
2023-05-03T01:25:33.862Z,9.30
2023-05-03T01:30:40.172Z,8.60
2023-05-03T01:35:57.996Z,8.50
2023-05-03T01:41:06.431Z,8.60
2023-05-03T01:46:09.930Z,8.90
2023-05-03T01:51:12.826Z,9.80
2023-05-03T01:56:15.602Z,9.50
2023-05-03T02:01:18.402Z,9.30
2023-05-03T02:06:24.941Z,8.90
2023-05-03T02:11:27.748Z,8.00
2023-05-03T02:16:30.558Z,9.20
2023-05-03T02:21:37.908Z,6.90
2023-05-03T02:31:43.698Z,8.00
2023-05-03T02:36:46.439Z,8.30
2023-05-03T02:41:49.334Z,6.20
2023-05-03T02:46:52.104Z,8.20
2023-05-03T02:51:56.866Z,6.90
2023-05-03T02:56:59.647Z,7.50
2023-05-03T03:02:02.575Z,8.60
2023-05-03T03:07:05.495Z,8.70
2023-05-03T03:12:08.293Z,8.40
2023-05-03T03:17:12.125Z,8.30
2023-05-03T03:22:14.871Z,6.60
2023-05-03T03:27:17.628Z,6.50
2023-05-03T03:32:23.420Z,8.00
2023-05-03T03:37:26.143Z,6.30
2023-05-03T03:42:28.933Z,7.60
2023-05-03T03:47:31.844Z,6.10
2023-05-03T03:52:34.717Z,6.10
2023-05-03T03:57:37.505Z,6.10
2023-05-03T04:02:41.066Z,6.00
2023-05-03T04:07:43.917Z,6.80
2023-05-03T04:12:46.670Z,6.20
2023-05-03T04:17:49.677Z,5.50
2023-05-03T04:22:52.800Z,5.90
2023-05-03T04:27:55.796Z,4.80
2023-05-03T04:33:00.925Z,8.20
2023-05-03T04:38:04.294Z,6.00
2023-05-03T04:43:07.085Z,6.10
2023-05-03T04:48:09.979Z,6.20
2023-05-03T04:53:12.777Z,6.90
2023-05-03T04:58:15.595Z,5.60
2023-05-03T05:03:18.412Z,5.20
2023-05-03T05:08:21.234Z,4.80
2023-05-03T05:13:24.052Z,5.40
2023-05-03T05:18:26.825Z,5.50
2023-05-03T05:23:29.714Z,5.60
2023-05-03T05:28:32.974Z,6.50
2023-05-03T05:33:35.784Z,5.60
2023-05-03T05:38:38.813Z,9.50
2023-05-03T05:43:41.538Z,8.80
2023-05-03T05:48:44.281Z,8.50
2023-05-03T05:53:47.160Z,7.30
2023-05-03T05:58:50.032Z,8.90
2023-05-03T06:03:52.782Z,9.90
2023-05-03T06:08:55.788Z,7.40
2023-05-03T06:13:58.799Z,9.30
2023-05-03T06:19:01.953Z,7.80
2023-05-03T06:24:05.130Z,7.30
2023-05-03T06:29:07.884Z,7.70
2023-05-03T06:34:10.688Z,5.00
2023-05-03T06:39:13.763Z,6.90
2023-05-03T06:44:17.051Z,5.60
2023-05-03T06:49:19.790Z,6.30
2023-05-03T06:54:22.679Z,5.50
2023-05-03T06:59:27.049Z,5.80
2023-05-03T07:04:34.182Z,3.90
2023-05-03T07:09:43.669Z,5.30
2023-05-03T07:14:47.511Z,3.60
2023-05-03T07:19:51.540Z,4.30
2023-05-03T07:24:59.924Z,3.70
2023-05-03T07:30:05.601Z,4.90
2023-05-03T07:35:09.630Z,4.70
2023-05-03T07:40:12.703Z,4.10
2023-05-03T07:45:15.807Z,4.00
2023-05-03T07:50:18.932Z,3.90
2023-05-03T07:55:23.225Z,3.50
2023-05-03T08:00:27.703Z,5.50
2023-05-03T08:05:30.705Z,3.60
2023-05-03T08:10:40.178Z,3.30
2023-05-03T08:15:43.167Z,4.60
2023-05-03T08:20:47.197Z,4.40
2023-05-03T08:25:50.279Z,3.40
2023-05-03T08:30:53.553Z,3.10
2023-05-03T08:35:56.519Z,3.30
2023-05-03T08:41:11.189Z,2.90
2023-05-03T08:46:14.135Z,3.10
2023-05-03T08:51:20.520Z,3.10
2023-05-03T08:56:33.519Z,2.90
2023-05-03T09:01:37.516Z,2.60
2023-05-03T09:06:40.621Z,2.80
2023-05-03T09:11:43.673Z,3.00
2023-05-03T09:16:47.432Z,3.60
2023-05-03T09:22:07.119Z,3.40
2023-05-03T09:27:21.436Z,3.60
2023-05-03T09:32:25.364Z,2.70
2023-05-03T09:37:40.193Z,2.40
2023-05-03T09:43:09.794Z,2.30
2023-05-03T09:48:13.953Z,3.00
2023-05-03T09:53:20.045Z,3.30
2023-05-03T09:58:24.429Z,2.90
2023-05-03T10:03:44.102Z,2.80
2023-05-03T10:08:52.922Z,2.90
2023-05-03T10:13:56.764Z,2.60
2023-05-03T10:19:14.033Z,3.30
2023-05-03T10:24:18.044Z,2.30
2023-05-03T10:29:49.930Z,2.90
2023-05-03T10:35:10.523Z,2.80
2023-05-03T10:40:19.469Z,3.00
2023-05-03T10:45:28.265Z,4.40
2023-05-03T10:50:37.637Z,3.60
2023-05-03T10:55:40.573Z,3.20
2023-05-03T11:00:45.135Z,2.10
2023-05-03T11:05:48.750Z,2.30
2023-05-03T11:11:01.085Z,2.70
2023-05-03T11:16:07.423Z,3.10
2023-05-03T11:26:26.448Z,3.30
2023-05-03T11:31:29.749Z,2.80
2023-05-03T11:36:33.266Z,3.20
2023-05-03T11:41:38.429Z,3.00
2023-05-03T11:46:42.687Z,3.30
2023-05-03T11:51:48.491Z,3.70
2023-05-03T11:57:01.195Z,2.80
2023-05-03T12:02:06.640Z,3.40
2023-05-03T12:07:13.487Z,2.20
2023-05-03T12:12:25.530Z,3.30
2023-05-03T12:17:37.315Z,3.70
2023-05-03T12:22:41.048Z,4.00
2023-05-03T12:27:45.436Z,4.70
2023-05-03T12:32:51.316Z,4.40
2023-05-03T12:42:58.149Z,3.30
2023-05-03T12:48:01.178Z,3.70
2023-05-03T12:53:08.477Z,3.50
2023-05-03T12:58:45.959Z,3.20
2023-05-03T13:03:43.758Z,3.20
2023-05-03T13:08:50.245Z,5.10
2023-05-03T13:13:53.803Z,3.50
2023-05-03T13:18:56.774Z,3.20
2023-05-03T13:23:59.863Z,5.00
2023-05-03T13:29:05.136Z,2.20
2023-05-03T13:34:07.857Z,2.30
2023-05-03T13:39:11.050Z,1.70
2023-05-03T13:44:13.968Z,2.40
2023-05-03T13:49:19.263Z,2.40
2023-05-03T13:54:22.160Z,2.40
2023-05-03T13:59:25.547Z,2.50
2023-05-03T14:04:28.523Z,2.30
2023-05-03T14:09:31.651Z,2.70
2023-05-03T14:14:35.104Z,1.40
2023-05-03T14:19:37.927Z,3.20
2023-05-03T14:24:42.788Z,2.60
2023-05-03T14:29:47.208Z,2.20
2023-05-03T14:34:50.176Z,4.40
2023-05-03T14:39:53.211Z,3.10
2023-05-03T14:45:02.529Z,2.80
2023-05-03T14:50:07.069Z,5.40
2023-05-03T14:55:12.649Z,1.70
2023-05-03T15:00:21.218Z,3.70
2023-05-03T15:05:27.720Z,1.40
2023-05-03T15:10:32.896Z,1.90
2023-05-03T15:15:38.443Z,2.80
2023-05-03T15:20:41.326Z,1.40
2023-05-03T15:25:45.117Z,2.60
2023-05-03T15:30:48.061Z,3.80
2023-05-03T15:35:51.191Z,1.90
2023-05-03T15:40:54.597Z,2.10
2023-05-03T15:45:57.430Z,2.60
2023-05-03T15:51:00.414Z,3.10
2023-05-03T15:56:04.673Z,2.10
2023-05-03T16:01:13.609Z,1.80
2023-05-03T16:06:18.368Z,1.50
2023-05-03T16:11:23.860Z,1.20
2023-05-03T16:16:27.501Z,1.70
2023-05-03T16:21:33.152Z,3.10
2023-05-03T16:26:36.133Z,2.40
2023-05-03T16:31:38.934Z,6.60
2023-05-03T16:36:43.240Z,2.90
2023-05-03T16:41:46.105Z,4.70
2023-05-03T16:46:49.069Z,3.00
2023-05-03T16:51:52.195Z,3.20
2023-05-03T16:56:58.762Z,2.80
2023-05-03T17:02:02.013Z,2.90
2023-05-03T17:07:05.620Z,3.40
2023-05-03T17:12:08.500Z,4.40
2023-05-03T17:17:11.942Z,3.60
2023-05-03T17:22:14.828Z,3.70
2023-05-03T17:27:18.686Z,3.60
2023-05-03T17:32:21.500Z,2.50
2023-05-03T17:37:26.011Z,4.90
2023-05-03T17:42:31.314Z,3.60
2023-05-03T17:47:34.721Z,3.60
2023-05-03T17:52:38.058Z,2.80
2023-05-03T17:57:41.428Z,6.20
2023-05-03T18:02:48.039Z,6.50
2023-05-03T18:12:53.979Z,5.60
2023-05-03T18:17:57.446Z,4.50
2023-05-03T18:23:00.589Z,5.00
2023-05-03T18:28:03.762Z,7.60
2023-05-03T18:33:06.862Z,6.50
2023-05-03T18:38:10.237Z,5.50
2023-05-03T18:43:17.534Z,6.00
2023-05-03T18:48:20.285Z,6.90
2023-05-03T18:53:23.141Z,7.50
2023-05-03T18:58:26.362Z,12.70
2023-05-03T19:03:30.240Z,8.10
2023-05-03T19:08:33.597Z,8.50
2023-05-03T19:13:36.709Z,7.50
2023-05-03T19:18:42.268Z,11.40
2023-05-03T19:23:45.422Z,11.60
2023-05-03T19:28:48.444Z,9.20
2023-05-03T19:33:51.623Z,13.60
2023-05-03T19:38:54.877Z,9.20
2023-05-03T19:43:57.677Z,10.10
2023-05-03T19:49:01.538Z,8.40
2023-05-03T19:54:04.319Z,13.30
2023-05-03T19:59:07.084Z,12.90
2023-05-03T20:04:10.070Z,12.80
2023-05-03T20:09:13.100Z,10.00
2023-05-03T20:14:16.424Z,9.70
2023-05-03T20:19:19.509Z,9.30
2023-05-03T20:24:23.182Z,7.80
2023-05-03T20:29:26.047Z,10.90
2023-05-03T20:34:28.907Z,8.40
2023-05-03T20:39:31.763Z,9.30
2023-05-03T20:44:34.568Z,5.10
2023-05-03T20:49:39.952Z,7.30
2023-05-03T20:54:45.151Z,7.90
2023-05-03T20:59:48.400Z,7.40
2023-05-03T21:04:51.170Z,7.30
2023-05-03T21:09:53.914Z,6.60
2023-05-03T21:14:56.722Z,8.10
2023-05-03T21:19:59.619Z,5.90
2023-05-03T21:25:02.520Z,9.60
2023-05-03T21:30:06.343Z,7.20
2023-05-03T21:35:09.708Z,9.70
2023-05-03T21:40:13.918Z,6.00
2023-05-03T21:45:16.940Z,5.50
2023-05-03T21:50:19.779Z,4.70
2023-05-03T21:55:22.724Z,7.10
2023-05-03T22:00:25.556Z,5.30
2023-05-03T22:05:28.436Z,6.80
2023-05-03T22:10:31.225Z,6.90
2023-05-03T22:15:34.117Z,8.00
2023-05-03T22:20:36.945Z,6.80
2023-05-03T22:25:39.725Z,5.00
2023-05-03T22:30:42.580Z,6.00
2023-05-03T22:35:45.365Z,6.20
2023-05-03T22:40:48.386Z,6.10
2023-05-03T22:45:51.221Z,4.20
2023-05-03T22:50:54.060Z,4.50
2023-05-03T22:56:02.096Z,6.60
2023-05-03T23:01:11.000Z,4.90
2023-05-03T23:06:14.528Z,7.70
2023-05-03T23:11:17.887Z,5.90
2023-05-03T23:16:23.254Z,6.10
2023-05-03T23:21:26.221Z,15.40
2023-05-03T23:26:29.079Z,17.80
2023-05-03T23:31:33.549Z,8.60
2023-05-03T23:36:37.800Z,9.20
2023-05-03T23:41:40.723Z,6.50
2023-05-03T23:46:43.626Z,5.80
2023-05-03T23:51:46.714Z,6.80
2023-05-03T23:56:49.499Z,8.50
